createdAt,value
2017-11-12T00:00:02.817Z,7.85
2017-11-12T00:00:07.191Z,7.84
2017-11-12T00:00:11.555Z,7.84
2017-11-12T00:00:16.056Z,7.85
2017-11-12T00:00:20.551Z,7.85
2017-11-12T00:00:25.046Z,7.84
2017-11-12T00:00:29.133Z,7.84
2017-11-12T00:00:33.667Z,7.84
2017-11-12T00:00:38.020Z,7.84
2017-11-12T00:00:42.242Z,7.84
2017-11-12T00:00:46.597Z,7.84
2017-11-12T00:00:50.957Z,7.84
2017-11-12T00:00:55.318Z,7.84
2017-11-12T00:00:59.809Z,7.84
2017-11-12T00:01:04.176Z,7.84
2017-11-12T00:01:08.263Z,7.84
2017-11-12T00:01:12.753Z,7.84
2017-11-12T00:01:17.245Z,7.84
2017-11-12T00:01:21.745Z,7.84
2017-11-12T00:01:26.232Z,7.84
2017-11-12T00:01:30.597Z,7.85
2017-11-12T00:01:34.958Z,7.84
2017-11-12T00:01:39.188Z,7.84
2017-11-12T00:01:43.692Z,7.84
2017-11-12T00:01:47.930Z,7.85
2017-11-12T00:01:52.287Z,7.84
2017-11-12T00:01:56.644Z,7.84
2017-11-12T00:02:00.732Z,7.84
2017-11-12T00:02:04.972Z,7.84
2017-11-12T00:02:09.192Z,7.85
2017-11-12T00:02:13.561Z,7.85
2017-11-12T00:02:17.944Z,7.84
2017-11-12T00:02:22.164Z,7.85
2017-11-12T00:02:26.667Z,7.85
2017-11-12T00:02:31.052Z,7.84
2017-11-12T00:02:35.534Z,7.84
2017-11-12T00:02:40.052Z,7.85
2017-11-12T00:02:44.558Z,7.84
2017-11-12T00:02:48.915Z,7.85
2017-11-12T00:02:53.144Z,7.85
2017-11-12T00:02:57.412Z,7.85
2017-11-12T00:03:01.902Z,7.85
2017-11-12T00:03:06.393Z,7.85
2017-11-12T00:03:10.763Z,7.85
2017-11-12T00:03:15.256Z,7.86
2017-11-12T00:03:19.746Z,7.85
2017-11-12T00:03:24.114Z,7.85
2017-11-12T00:03:28.354Z,7.85
2017-11-12T00:03:32.857Z,7.85
2017-11-12T00:03:37.215Z,7.85
2017-11-12T00:03:41.427Z,7.85
2017-11-12T00:03:45.643Z,7.85
2017-11-12T00:03:49.746Z,7.86
2017-11-12T00:03:54.229Z,7.85
2017-11-12T00:03:58.710Z,7.86
2017-11-12T00:04:03.057Z,7.85
2017-11-12T00:04:07.552Z,7.85
2017-11-12T00:04:12.068Z,7.85
2017-11-12T00:04:16.420Z,7.86
2017-11-12T00:04:20.384Z,7.86
2017-11-12T00:04:24.885Z,7.85
2017-11-12T00:04:29.102Z,7.85
2017-11-12T00:04:33.332Z,7.85
2017-11-12T00:04:37.830Z,7.84
2017-11-12T00:04:42.320Z,7.86
2017-11-12T00:04:46.674Z,7.85
2017-11-12T00:04:51.174Z,7.85
2017-11-12T00:04:55.533Z,7.85
2017-11-12T00:04:59.892Z,7.85
2017-11-12T00:05:04.250Z,7.85
2017-11-12T00:05:08.749Z,7.84
2017-11-12T00:05:12.967Z,7.85
2017-11-12T00:05:17.319Z,7.86
2017-11-12T00:05:21.812Z,7.85
2017-11-12T00:05:26.163Z,7.85
2017-11-12T00:05:30.548Z,7.85
2017-11-12T00:05:34.918Z,7.86
2017-11-12T00:05:39.403Z,7.85
2017-11-12T00:05:43.898Z,7.85
2017-11-12T00:05:48.256Z,7.85
2017-11-12T00:05:52.741Z,7.85
2017-11-12T00:05:57.234Z,7.86
2017-11-12T00:06:01.608Z,7.85
2017-11-12T00:06:05.761Z,7.85
2017-11-12T00:06:10.243Z,7.85
2017-11-12T00:06:14.616Z,7.86
2017-11-12T00:06:18.972Z,7.85
2017-11-12T00:06:23.464Z,7.84
2017-11-12T00:06:27.971Z,7.85
2017-11-12T00:06:32.530Z,7.85
2017-11-12T00:06:37.017Z,7.85
2017-11-12T00:06:41.513Z,7.85
2017-11-12T00:06:46.017Z,7.85
2017-11-12T00:06:50.245Z,7.86
2017-11-12T00:06:54.467Z,7.85
2017-11-12T00:06:58.967Z,7.85
2017-11-12T00:07:03.621Z,7.85
2017-11-12T00:07:07.980Z,7.86
2017-11-12T00:07:12.206Z,7.86
2017-11-12T00:07:16.721Z,7.87
2017-11-12T00:07:21.181Z,7.85
2017-11-12T00:07:25.536Z,7.87
2017-11-12T00:07:29.761Z,7.86
2017-11-12T00:07:34.116Z,7.85
2017-11-12T00:07:38.488Z,7.86
2017-11-12T00:07:42.761Z,7.87
2017-11-12T00:07:47.116Z,7.87
2017-11-12T00:07:51.607Z,7.86
2017-11-12T00:07:56.108Z,7.86
2017-11-12T00:08:00.647Z,7.86
2017-11-12T00:08:05.143Z,7.86
2017-11-12T00:08:09.374Z,7.87
2017-11-12T00:08:13.898Z,7.87
2017-11-12T00:08:18.381Z,7.87
2017-11-12T00:08:22.332Z,7.86
2017-11-12T00:08:26.720Z,7.86
2017-11-12T00:08:30.939Z,7.86
2017-11-12T00:08:35.292Z,7.86
2017-11-12T00:08:39.655Z,7.86
2017-11-12T00:08:44.019Z,7.87
2017-11-12T00:08:48.520Z,7.86
2017-11-12T00:08:52.881Z,7.86
2017-11-12T00:08:57.251Z,7.87
2017-11-12T00:09:01.472Z,7.86
2017-11-12T00:09:05.977Z,7.86
2017-11-12T00:09:10.471Z,7.86
2017-11-12T00:09:14.689Z,7.87
2017-11-12T00:09:19.039Z,7.86
2017-11-12T00:09:23.589Z,7.86
2017-11-12T00:09:27.809Z,7.87
2017-11-12T00:09:32.185Z,7.86
2017-11-12T00:09:36.281Z,7.87
2017-11-12T00:09:40.646Z,7.86
2017-11-12T00:09:45.135Z,7.86
2017-11-12T00:09:49.504Z,7.86
2017-11-12T00:09:53.854Z,7.87
2017-11-12T00:09:58.347Z,7.87
2017-11-12T00:10:02.704Z,7.87
2017-11-12T00:10:06.930Z,7.87
2017-11-12T00:10:11.018Z,7.86
2017-11-12T00:10:15.375Z,7.87
2017-11-12T00:10:19.868Z,7.87
2017-11-12T00:10:24.353Z,7.87
2017-11-12T00:10:28.710Z,7.86
2017-11-12T00:10:33.087Z,7.87
2017-11-12T00:10:37.436Z,7.86
2017-11-12T00:10:41.803Z,7.86
2017-11-12T00:10:46.157Z,7.87
2017-11-12T00:10:50.389Z,7.87
2017-11-12T00:10:54.884Z,7.87
2017-11-12T00:10:59.258Z,7.87
2017-11-12T00:11:04.100Z,7.87
2017-11-12T00:11:08.193Z,7.87
2017-11-12T00:11:12.696Z,7.87
2017-11-12T00:11:17.066Z,7.88
2017-11-12T00:11:21.548Z,7.88
2017-11-12T00:11:26.044Z,7.88
2017-11-12T00:11:30.272Z,7.89
2017-11-12T00:11:34.770Z,7.88
2017-11-12T00:11:38.986Z,7.89
2017-11-12T00:11:43.472Z,7.89
2017-11-12T00:11:47.691Z,7.88
2017-11-12T00:11:52.053Z,7.89
2017-11-12T00:11:56.447Z,7.89
2017-11-12T00:12:00.932Z,7.89
2017-11-12T00:12:05.649Z,7.89
2017-11-12T00:12:09.878Z,7.9
2017-11-12T00:12:14.226Z,7.89
2017-11-12T00:12:18.575Z,7.9
2017-11-12T00:12:22.942Z,7.9
2017-11-12T00:12:27.306Z,7.89
2017-11-12T00:12:31.664Z,7.91
2017-11-12T00:12:36.160Z,7.9
2017-11-12T00:12:40.651Z,7.9
2017-11-12T00:12:45.010Z,7.91
2017-11-12T00:12:49.525Z,7.9
2017-11-12T00:12:54.043Z,7.9
2017-11-12T00:12:58.393Z,7.9
2017-11-12T00:13:03.182Z,7.91
2017-11-12T00:13:07.531Z,7.9
2017-11-12T00:13:11.755Z,7.91
2017-11-12T00:13:16.113Z,7.91
2017-11-12T00:13:20.337Z,7.91
2017-11-12T00:13:24.830Z,7.91
2017-11-12T00:13:29.198Z,7.91
2017-11-12T00:13:33.552Z,7.9
2017-11-12T00:13:37.908Z,7.92
2017-11-12T00:13:42.130Z,7.9
2017-11-12T00:13:46.628Z,7.91
2017-11-12T00:13:50.849Z,7.91
2017-11-12T00:13:55.338Z,7.92
2017-11-12T00:13:59.697Z,7.92
2017-11-12T00:14:04.350Z,7.92
2017-11-12T00:14:08.571Z,7.91
2017-11-12T00:14:12.926Z,7.92
2017-11-12T00:14:17.418Z,7.91
2017-11-12T00:14:21.768Z,7.91
2017-11-12T00:14:26.129Z,7.92
2017-11-12T00:14:30.360Z,7.91
2017-11-12T00:14:34.853Z,7.91
2017-11-12T00:14:39.206Z,7.91
2017-11-12T00:14:43.694Z,7.91
2017-11-12T00:14:48.235Z,7.93
2017-11-12T00:14:52.724Z,7.92
2017-11-12T00:14:57.090Z,7.92
2017-11-12T00:15:01.895Z,7.92
2017-11-12T00:15:05.986Z,7.93
2017-11-12T00:15:10.103Z,7.91
2017-11-12T00:15:14.456Z,7.91
2017-11-12T00:15:18.674Z,7.92
2017-11-12T00:15:23.033Z,7.92
2017-11-12T00:15:27.126Z,7.91
2017-11-12T00:15:31.214Z,7.92
2017-11-12T00:15:35.705Z,7.92
2017-11-12T00:15:40.201Z,7.91
2017-11-12T00:15:44.557Z,7.92
2017-11-12T00:15:49.052Z,7.91
2017-11-12T00:15:53.573Z,7.92
2017-11-12T00:15:57.788Z,7.92
2017-11-12T00:16:02.526Z,7.92
2017-11-12T00:16:06.750Z,7.92
2017-11-12T00:16:11.103Z,7.92
2017-11-12T00:16:15.590Z,7.92
2017-11-12T00:16:19.952Z,7.92
2017-11-12T00:16:24.452Z,7.92
2017-11-12T00:16:28.550Z,7.92
2017-11-12T00:16:33.061Z,7.92
2017-11-12T00:16:37.551Z,7.91
2017-11-12T00:16:41.902Z,7.92
2017-11-12T00:16:46.267Z,7.92
2017-11-12T00:16:50.762Z,7.92
2017-11-12T00:16:55.243Z,7.92
2017-11-12T00:16:59.736Z,7.91
2017-11-12T00:17:04.098Z,7.91
2017-11-12T00:17:08.452Z,7.91
2017-11-12T00:17:12.951Z,7.91
2017-11-12T00:17:17.321Z,7.91
2017-11-12T00:17:21.668Z,7.91
2017-11-12T00:17:26.027Z,7.91
2017-11-12T00:17:30.396Z,7.91
2017-11-12T00:17:34.634Z,7.91
2017-11-12T00:17:38.983Z,7.91
2017-11-12T00:17:43.481Z,7.91
2017-11-12T00:17:47.965Z,7.9
2017-11-12T00:17:52.326Z,7.91
2017-11-12T00:17:56.702Z,7.9
2017-11-12T00:18:01.217Z,7.9
2017-11-12T00:18:05.576Z,7.9
2017-11-12T00:18:09.948Z,7.9
2017-11-12T00:18:14.355Z,7.9
2017-11-12T00:18:18.840Z,7.9
2017-11-12T00:18:23.203Z,7.9
2017-11-12T00:18:27.441Z,7.9
2017-11-12T00:18:31.802Z,7.9
2017-11-12T00:18:36.290Z,7.9
2017-11-12T00:18:40.798Z,7.9
2017-11-12T00:18:45.152Z,7.89
2017-11-12T00:18:49.383Z,7.9
2017-11-12T00:18:53.876Z,7.9
2017-11-12T00:18:58.358Z,7.89
2017-11-12T00:19:02.717Z,7.9
2017-11-12T00:19:07.088Z,7.89
2017-11-12T00:19:11.446Z,7.9
2017-11-12T00:19:15.797Z,7.89
2017-11-12T00:19:20.289Z,7.9
2017-11-12T00:19:24.538Z,7.89
2017-11-12T00:19:28.624Z,7.9
2017-11-12T00:19:33.129Z,7.89
2017-11-12T00:19:37.225Z,7.9
2017-11-12T00:19:41.711Z,7.9
2017-11-12T00:19:46.067Z,7.89
2017-11-12T00:19:50.152Z,7.9
2017-11-12T00:19:54.645Z,7.9
2017-11-12T00:19:59.137Z,7.9
2017-11-12T00:20:03.554Z,7.9
2017-11-12T00:20:08.047Z,7.91
2017-11-12T00:20:12.270Z,7.9
2017-11-12T00:20:16.634Z,7.9
2017-11-12T00:20:21.010Z,7.9
2017-11-12T00:20:25.497Z,7.9
2017-11-12T00:20:29.735Z,7.9
2017-11-12T00:20:34.237Z,7.9
2017-11-12T00:20:38.727Z,7.9
2017-11-12T00:20:43.220Z,7.9
2017-11-12T00:20:47.583Z,7.9
2017-11-12T00:20:51.805Z,7.91
2017-11-12T00:20:56.290Z,7.9
2017-11-12T00:21:00.648Z,7.9
2017-11-12T00:21:05.176Z,7.9
2017-11-12T00:21:09.690Z,7.9
2017-11-12T00:21:14.189Z,7.9
2017-11-12T00:21:18.672Z,7.9
2017-11-12T00:21:23.179Z,7.9
2017-11-12T00:21:27.265Z,7.91
2017-11-12T00:21:31.354Z,7.9
2017-11-12T00:21:35.842Z,7.9
2017-11-12T00:21:40.355Z,7.9
2017-11-12T00:21:44.705Z,7.9
2017-11-12T00:21:49.057Z,7.89
2017-11-12T00:21:53.409Z,7.9
2017-11-12T00:21:57.948Z,7.9
2017-11-12T00:22:02.453Z,7.9
2017-11-12T00:22:06.692Z,7.9
2017-11-12T00:22:11.050Z,7.9
2017-11-12T00:22:15.409Z,7.89
2017-11-12T00:22:19.493Z,7.9
2017-11-12T00:22:24.016Z,7.89
2017-11-12T00:22:28.103Z,7.89
2017-11-12T00:22:32.465Z,7.89
2017-11-12T00:22:36.702Z,7.89
2017-11-12T00:22:41.083Z,7.89
2017-11-12T00:22:45.431Z,7.89
2017-11-12T00:22:49.920Z,7.9
2017-11-12T00:22:54.442Z,7.89
2017-11-12T00:22:58.784Z,7.88
2017-11-12T00:23:03.147Z,7.89
2017-11-12T00:23:07.529Z,7.89
2017-11-12T00:23:12.012Z,7.89
2017-11-12T00:23:16.501Z,7.89
2017-11-12T00:23:20.995Z,7.89
2017-11-12T00:23:25.471Z,7.89
2017-11-12T00:23:29.557Z,7.89
2017-11-12T00:23:33.915Z,7.89
2017-11-12T00:23:38.149Z,7.88
2017-11-12T00:23:42.632Z,7.89
2017-11-12T00:23:46.728Z,7.89
2017-11-12T00:23:50.946Z,7.89
2017-11-12T00:23:55.432Z,7.89
2017-11-12T00:23:59.510Z,7.89
2017-11-12T00:24:04.151Z,7.88
2017-11-12T00:24:08.376Z,7.89
2017-11-12T00:24:12.727Z,7.89
2017-11-12T00:24:17.205Z,7.89
2017-11-12T00:24:21.556Z,7.89
2017-11-12T00:24:25.902Z,7.89
2017-11-12T00:24:30.119Z,7.88
2017-11-12T00:24:34.475Z,7.88
2017-11-12T00:24:38.694Z,7.89
2017-11-12T00:24:43.180Z,7.89
2017-11-12T00:24:47.684Z,7.89
2017-11-12T00:24:51.911Z,7.88
2017-11-12T00:24:56.395Z,7.89
2017-11-12T00:25:00.749Z,7.89
2017-11-12T00:25:05.557Z,7.89
2017-11-12T00:25:10.040Z,7.89
2017-11-12T00:25:14.532Z,7.88
2017-11-12T00:25:19.042Z,7.88
2017-11-12T00:25:23.527Z,7.89
2017-11-12T00:25:27.884Z,7.89
2017-11-12T00:25:31.973Z,7.89
2017-11-12T00:25:36.477Z,7.89
2017-11-12T00:25:40.971Z,7.89
2017-11-12T00:25:45.202Z,7.88
2017-11-12T00:25:49.566Z,7.89
2017-11-12T00:25:53.788Z,7.89
2017-11-12T00:25:58.274Z,7.89
2017-11-12T00:26:02.660Z,7.88
2017-11-12T00:26:06.743Z,7.89
2017-11-12T00:26:11.226Z,7.88
2017-11-12T00:26:15.579Z,7.89
2017-11-12T00:26:19.978Z,7.89
2017-11-12T00:26:24.326Z,7.88
2017-11-12T00:26:28.413Z,7.88
2017-11-12T00:26:32.918Z,7.89
2017-11-12T00:26:37.399Z,7.89
2017-11-12T00:26:41.763Z,7.88
2017-11-12T00:26:46.259Z,7.89
2017-11-12T00:26:50.753Z,7.89
2017-11-12T00:26:55.110Z,7.89
2017-11-12T00:26:59.602Z,7.89
2017-11-12T00:27:04.096Z,7.89
2017-11-12T00:27:08.450Z,7.89
2017-11-12T00:27:12.549Z,7.88
2017-11-12T00:27:17.040Z,7.9
2017-11-12T00:27:21.523Z,7.89
2017-11-12T00:27:26.011Z,7.89
2017-11-12T00:27:30.263Z,7.89
2017-11-12T00:27:34.645Z,7.89
2017-11-12T00:27:39.002Z,7.89
2017-11-12T00:27:43.510Z,7.89
2017-11-12T00:27:48.002Z,7.89
2017-11-12T00:27:52.223Z,7.89
2017-11-12T00:27:56.586Z,7.89
2017-11-12T00:28:00.958Z,7.89
2017-11-12T00:28:05.480Z,7.89
2017-11-12T00:28:09.571Z,7.9
2017-11-12T00:28:14.061Z,7.9
2017-11-12T00:28:18.421Z,7.89
2017-11-12T00:28:22.912Z,7.88
2017-11-12T00:28:27.264Z,7.88
2017-11-12T00:28:31.622Z,7.89
2017-11-12T00:28:35.976Z,7.89
2017-11-12T00:28:40.474Z,7.89
2017-11-12T00:28:44.702Z,7.88
2017-11-12T00:28:48.938Z,7.89
2017-11-12T00:28:53.340Z,7.89
2017-11-12T00:28:57.840Z,7.88
2017-11-12T00:29:02.197Z,7.88
2017-11-12T00:29:06.302Z,7.88
2017-11-12T00:29:10.790Z,7.88
2017-11-12T00:29:15.009Z,7.89
2017-11-12T00:29:19.543Z,7.89
2017-11-12T00:29:23.643Z,7.88
2017-11-12T00:29:28.007Z,7.89
2017-11-12T00:29:32.510Z,7.89
2017-11-12T00:29:36.996Z,7.89
2017-11-12T00:29:41.476Z,7.89
2017-11-12T00:29:45.838Z,7.89
2017-11-12T00:29:50.190Z,7.89
2017-11-12T00:29:54.410Z,7.89
2017-11-12T00:29:58.785Z,7.88
2017-11-12T00:30:03.285Z,7.89
2017-11-12T00:30:07.654Z,7.89
2017-11-12T00:30:12.021Z,7.88
2017-11-12T00:30:16.388Z,7.89
2017-11-12T00:30:20.469Z,7.89
2017-11-12T00:30:24.974Z,7.89
2017-11-12T00:30:29.193Z,7.89
2017-11-12T00:30:33.418Z,7.9
2017-11-12T00:30:37.638Z,7.89
2017-11-12T00:30:41.989Z,7.9
2017-11-12T00:30:46.354Z,7.9
2017-11-12T00:30:50.725Z,7.9
2017-11-12T00:30:55.216Z,7.9
2017-11-12T00:30:59.712Z,7.9
2017-11-12T00:31:04.216Z,7.9
2017-11-12T00:31:08.576Z,7.9
2017-11-12T00:31:13.112Z,7.9
2017-11-12T00:31:17.597Z,7.9
2017-11-12T00:31:22.081Z,7.9
2017-11-12T00:31:26.312Z,7.9
2017-11-12T00:31:30.532Z,7.91
2017-11-12T00:31:34.746Z,7.91
2017-11-12T00:31:39.125Z,7.91
2017-11-12T00:31:43.484Z,7.91
2017-11-12T00:31:47.840Z,7.91
2017-11-12T00:31:52.330Z,7.91
2017-11-12T00:31:56.591Z,7.91
2017-11-12T00:32:00.942Z,7.9
2017-11-12T00:32:05.457Z,7.91
2017-11-12T00:32:09.973Z,7.9
2017-11-12T00:32:14.332Z,7.91
2017-11-12T00:32:18.689Z,7.9
2017-11-12T00:32:22.920Z,7.89
2017-11-12T00:32:27.283Z,7.91
2017-11-12T00:32:31.369Z,7.91
2017-11-12T00:32:35.600Z,7.91
2017-11-12T00:32:39.958Z,7.9
2017-11-12T00:32:44.437Z,7.91
2017-11-12T00:32:48.924Z,7.9
2017-11-12T00:32:53.416Z,7.91
2017-11-12T00:32:57.775Z,7.91
2017-11-12T00:33:02.004Z,7.91
2017-11-12T00:33:06.506Z,7.92
2017-11-12T00:33:10.994Z,7.91
2017-11-12T00:33:15.478Z,7.92
2017-11-12T00:33:19.977Z,7.91
2017-11-12T00:33:24.465Z,7.91
2017-11-12T00:33:28.957Z,7.91
2017-11-12T00:33:33.484Z,7.91
2017-11-12T00:33:37.833Z,7.92
2017-11-12T00:33:42.191Z,7.92
2017-11-12T00:33:46.690Z,7.92
2017-11-12T00:33:51.037Z,7.91
2017-11-12T00:33:55.519Z,7.91
2017-11-12T00:33:59.743Z,7.91
2017-11-12T00:34:04.276Z,7.91
2017-11-12T00:34:08.631Z,7.91
2017-11-12T00:34:12.869Z,7.91
2017-11-12T00:34:16.963Z,7.9
2017-11-12T00:34:21.046Z,7.9
2017-11-12T00:34:25.529Z,7.91
2017-11-12T00:34:29.766Z,7.9
2017-11-12T00:34:34.128Z,7.91
2017-11-12T00:34:38.498Z,7.9
2017-11-12T00:34:42.861Z,7.9
2017-11-12T00:34:47.393Z,7.9
2017-11-12T00:34:51.882Z,7.91
2017-11-12T00:34:56.386Z,7.91
2017-11-12T00:35:00.632Z,7.9
2017-11-12T00:35:04.861Z,7.9
2017-11-12T00:35:09.233Z,7.9
2017-11-12T00:35:13.606Z,7.91
2017-11-12T00:35:18.111Z,7.91
2017-11-12T00:35:22.482Z,7.91
2017-11-12T00:35:26.708Z,7.9
2017-11-12T00:35:30.929Z,7.91
2017-11-12T00:35:35.291Z,7.9
2017-11-12T00:35:39.654Z,7.91
2017-11-12T00:35:43.923Z,7.91
2017-11-12T00:35:48.283Z,7.9
2017-11-12T00:35:52.805Z,7.9
2017-11-12T00:35:57.301Z,7.9
2017-11-12T00:36:01.796Z,7.9
2017-11-12T00:36:06.161Z,7.9
2017-11-12T00:36:10.517Z,7.9
2017-11-12T00:36:14.734Z,7.9
2017-11-12T00:36:19.086Z,7.9
2017-11-12T00:36:23.170Z,7.9
2017-11-12T00:36:27.529Z,7.9
2017-11-12T00:36:32.028Z,7.91
2017-11-12T00:36:36.378Z,7.89
2017-11-12T00:36:40.730Z,7.89
2017-11-12T00:36:45.095Z,7.9
2017-11-12T00:36:49.466Z,7.9
2017-11-12T00:36:53.823Z,7.89
2017-11-12T00:36:58.313Z,7.89
2017-11-12T00:37:03.082Z,7.89
2017-11-12T00:37:07.596Z,7.89
2017-11-12T00:37:12.082Z,7.89
2017-11-12T00:37:16.583Z,7.89
2017-11-12T00:37:21.064Z,7.89
2017-11-12T00:37:25.554Z,7.9
2017-11-12T00:37:29.657Z,7.89
2017-11-12T00:37:34.177Z,7.89
2017-11-12T00:37:38.677Z,7.88
2017-11-12T00:37:43.182Z,7.89
2017-11-12T00:37:47.407Z,7.89
2017-11-12T00:37:51.758Z,7.88
2017-11-12T00:37:56.253Z,7.89
2017-11-12T00:38:00.661Z,7.88
2017-11-12T00:38:05.148Z,7.88
2017-11-12T00:38:09.658Z,7.89
2017-11-12T00:38:14.010Z,7.89
2017-11-12T00:38:18.360Z,7.88
2017-11-12T00:38:22.715Z,7.88
2017-11-12T00:38:27.100Z,7.89
2017-11-12T00:38:31.326Z,7.88
2017-11-12T00:38:35.680Z,7.88
2017-11-12T00:38:40.038Z,7.87
2017-11-12T00:38:44.257Z,7.88
2017-11-12T00:38:48.606Z,7.88
2017-11-12T00:38:52.996Z,7.88
2017-11-12T00:38:57.398Z,7.88
2017-11-12T00:39:01.894Z,7.88
2017-11-12T00:39:06.395Z,7.88
2017-11-12T00:39:10.950Z,7.88
2017-11-12T00:39:15.455Z,7.89
2017-11-12T00:39:19.676Z,7.89
2017-11-12T00:39:24.164Z,7.88
2017-11-12T00:39:28.678Z,7.88
2017-11-12T00:39:32.915Z,7.88
2017-11-12T00:39:37.146Z,7.88
2017-11-12T00:39:41.370Z,7.89
2017-11-12T00:39:45.597Z,7.88
2017-11-12T00:39:49.947Z,7.88
2017-11-12T00:39:54.185Z,7.88
2017-11-12T00:39:58.541Z,7.88
2017-11-12T00:40:03.032Z,7.88
2017-11-12T00:40:07.404Z,7.89
2017-11-12T00:40:11.891Z,7.89
2017-11-12T00:40:16.245Z,7.89
2017-11-12T00:40:20.750Z,7.88
2017-11-12T00:40:25.173Z,7.88
2017-11-12T00:40:29.524Z,7.88
2017-11-12T00:40:33.755Z,7.87
2017-11-12T00:40:37.973Z,7.88
2017-11-12T00:40:42.331Z,7.87
2017-11-12T00:40:46.573Z,7.88
2017-11-12T00:40:50.813Z,7.87
2017-11-12T00:40:55.302Z,7.88
2017-11-12T00:40:59.656Z,7.87
2017-11-12T00:41:04.257Z,7.88
2017-11-12T00:41:08.344Z,7.87
2017-11-12T00:41:12.713Z,7.88
2017-11-12T00:41:17.078Z,7.87
2017-11-12T00:41:21.429Z,7.88
2017-11-12T00:41:25.519Z,7.86
2017-11-12T00:41:29.889Z,7.87
2017-11-12T00:41:34.281Z,7.87
2017-11-12T00:41:38.497Z,7.88
2017-11-12T00:41:42.846Z,7.87
2017-11-12T00:41:47.212Z,7.88
2017-11-12T00:41:51.699Z,7.87
2017-11-12T00:41:56.055Z,7.87
2017-11-12T00:42:00.562Z,7.88
2017-11-12T00:42:05.052Z,7.88
2017-11-12T00:42:09.422Z,7.88
2017-11-12T00:42:13.649Z,7.88
2017-11-12T00:42:18.147Z,7.87
2017-11-12T00:42:22.637Z,7.88
2017-11-12T00:42:27.141Z,7.88
2017-11-12T00:42:31.505Z,7.87
2017-11-12T00:42:35.871Z,7.88
2017-11-12T00:42:40.381Z,7.88
2017-11-12T00:42:44.886Z,7.89
2017-11-12T00:42:49.377Z,7.89
2017-11-12T00:42:53.621Z,7.89
2017-11-12T00:42:57.845Z,7.88
2017-11-12T00:43:02.541Z,7.89
2017-11-12T00:43:07.038Z,7.88
2017-11-12T00:43:11.406Z,7.89
2017-11-12T00:43:15.759Z,7.88
2017-11-12T00:43:20.121Z,7.89
2017-11-12T00:43:24.483Z,7.89
2017-11-12T00:43:28.702Z,7.88
2017-11-12T00:43:33.203Z,7.89
2017-11-12T00:43:37.438Z,7.88
2017-11-12T00:43:41.662Z,7.89
2017-11-12T00:43:46.022Z,7.88
2017-11-12T00:43:50.392Z,7.89
2017-11-12T00:43:54.769Z,7.89
2017-11-12T00:43:59.257Z,7.9
2017-11-12T00:44:03.821Z,7.9
2017-11-12T00:44:08.058Z,7.9
2017-11-12T00:44:12.567Z,7.9
2017-11-12T00:44:16.931Z,7.91
2017-11-12T00:44:21.288Z,7.91
2017-11-12T00:44:25.789Z,7.9
2017-11-12T00:44:30.004Z,7.91
2017-11-12T00:44:34.221Z,7.91
2017-11-12T00:44:38.590Z,7.91
2017-11-12T00:44:42.942Z,7.91
2017-11-12T00:44:47.159Z,7.91
2017-11-12T00:44:51.531Z,7.91
2017-11-12T00:44:56.028Z,7.92
2017-11-12T00:45:00.117Z,7.91
2017-11-12T00:45:04.685Z,7.91
2017-11-12T00:45:09.181Z,7.92
2017-11-12T00:45:13.538Z,7.92
2017-11-12T00:45:18.053Z,7.91
2017-11-12T00:45:22.566Z,7.92
2017-11-12T00:45:26.788Z,7.92
2017-11-12T00:45:31.018Z,7.92
2017-11-12T00:45:35.272Z,7.91
2017-11-12T00:45:39.224Z,7.92
2017-11-12T00:45:43.593Z,7.92
2017-11-12T00:45:47.837Z,7.92
2017-11-12T00:45:52.333Z,7.92
2017-11-12T00:45:56.435Z,7.92
2017-11-12T00:46:00.810Z,7.92
2017-11-12T00:46:05.266Z,7.92
2017-11-12T00:46:09.485Z,7.93
2017-11-12T00:46:14.280Z,7.92
2017-11-12T00:46:18.785Z,7.93
2017-11-12T00:46:23.140Z,7.93
2017-11-12T00:46:27.502Z,7.93
2017-11-12T00:46:31.724Z,7.93
2017-11-12T00:46:36.202Z,7.93
2017-11-12T00:46:40.693Z,7.93
2017-11-12T00:46:45.189Z,7.94
2017-11-12T00:46:49.419Z,7.94
2017-11-12T00:46:53.774Z,7.93
2017-11-12T00:46:58.264Z,7.94
2017-11-12T00:47:02.910Z,7.93
2017-11-12T00:47:07.400Z,7.94
2017-11-12T00:47:11.779Z,7.94
2017-11-12T00:47:16.132Z,7.94
2017-11-12T00:47:20.626Z,7.95
2017-11-12T00:47:25.003Z,7.94
2017-11-12T00:47:29.086Z,7.95
2017-11-12T00:47:33.440Z,7.94
2017-11-12T00:47:37.953Z,7.94
2017-11-12T00:47:42.447Z,7.95
2017-11-12T00:47:46.931Z,7.95
2017-11-12T00:47:51.296Z,7.95
2017-11-12T00:47:55.651Z,7.96
2017-11-12T00:48:00.147Z,7.96
2017-11-12T00:48:04.476Z,7.95
2017-11-12T00:48:08.828Z,7.96
2017-11-12T00:48:13.066Z,7.96
2017-11-12T00:48:17.438Z,7.96
2017-11-12T00:48:21.932Z,7.97
2017-11-12T00:48:26.425Z,7.97
2017-11-12T00:48:30.667Z,7.97
2017-11-12T00:48:35.162Z,7.97
2017-11-12T00:48:39.660Z,7.97
2017-11-12T00:48:44.164Z,7.97
2017-11-12T00:48:48.522Z,7.97
2017-11-12T00:48:52.605Z,7.97
2017-11-12T00:48:57.087Z,7.98
2017-11-12T00:49:01.597Z,7.98
2017-11-12T00:49:06.103Z,7.98
2017-11-12T00:49:10.598Z,7.99
2017-11-12T00:49:15.113Z,7.99
2017-11-12T00:49:19.603Z,7.99
2017-11-12T00:49:23.963Z,8
2017-11-12T00:49:28.053Z,7.99
2017-11-12T00:49:32.597Z,7.99
2017-11-12T00:49:36.836Z,8
2017-11-12T00:49:41.203Z,8.01
2017-11-12T00:49:45.560Z,8
2017-11-12T00:49:50.047Z,8.01
2017-11-12T00:49:54.553Z,8.01
2017-11-12T00:49:59.046Z,8.01
2017-11-12T00:50:03.542Z,8.01
2017-11-12T00:50:07.923Z,8.01
2017-11-12T00:50:12.312Z,8.01
2017-11-12T00:50:16.662Z,8.01
2017-11-12T00:50:21.146Z,8.01
2017-11-12T00:50:25.558Z,8.02
2017-11-12T00:50:29.515Z,8.03
2017-11-12T00:50:33.992Z,8.01
2017-11-12T00:50:38.358Z,8.02
2017-11-12T00:50:42.867Z,8.02
2017-11-12T00:50:47.228Z,8.03
2017-11-12T00:50:51.737Z,8.03
2017-11-12T00:50:55.829Z,8.03
2017-11-12T00:51:00.053Z,8.03
2017-11-12T00:51:04.419Z,8.03
2017-11-12T00:51:08.769Z,8.03
2017-11-12T00:51:13.263Z,8.04
2017-11-12T00:51:17.749Z,8.03
2017-11-12T00:51:22.283Z,8.04
2017-11-12T00:51:26.781Z,8.04
2017-11-12T00:51:31.271Z,8.04
2017-11-12T00:51:35.778Z,8.04
2017-11-12T00:51:40.126Z,8.04
2017-11-12T00:51:44.493Z,8.05
2017-11-12T00:51:48.990Z,8.05
2017-11-12T00:51:53.214Z,8.05
2017-11-12T00:51:57.434Z,8.05
2017-11-12T00:52:01.939Z,8.05
2017-11-12T00:52:06.337Z,8.06
2017-11-12T00:52:10.689Z,8.05
2017-11-12T00:52:15.187Z,8.05
2017-11-12T00:52:19.411Z,8.05
2017-11-12T00:52:23.905Z,8.06
2017-11-12T00:52:28.131Z,8.06
2017-11-12T00:52:32.492Z,8.06
2017-11-12T00:52:36.855Z,8.06
2017-11-12T00:52:41.362Z,8.06
2017-11-12T00:52:45.497Z,8.06
2017-11-12T00:52:49.713Z,8.06
2017-11-12T00:52:53.932Z,8.07
2017-11-12T00:52:58.292Z,8.06
2017-11-12T00:53:02.772Z,8.07
2017-11-12T00:53:07.267Z,8.07
2017-11-12T00:53:11.798Z,8.07
2017-11-12T00:53:16.156Z,8.07
2017-11-12T00:53:20.369Z,8.06
2017-11-12T00:53:24.866Z,8.07
2017-11-12T00:53:29.119Z,8.07
2017-11-12T00:53:33.492Z,8.07
2017-11-12T00:53:37.880Z,8.07
2017-11-12T00:53:42.104Z,8.07
2017-11-12T00:53:46.594Z,8.07
2017-11-12T00:53:50.820Z,8.07
2017-11-12T00:53:55.173Z,8.07
2017-11-12T00:53:59.664Z,8.07
2017-11-12T00:54:04.032Z,8.07
2017-11-12T00:54:08.416Z,8.08
2017-11-12T00:54:12.904Z,8.07
2017-11-12T00:54:17.253Z,8.08
2017-11-12T00:54:21.757Z,8.08
2017-11-12T00:54:26.120Z,8.07
2017-11-12T00:54:30.361Z,8.07
2017-11-12T00:54:34.761Z,8.08
2017-11-12T00:54:39.248Z,8.07
2017-11-12T00:54:43.741Z,8.07
2017-11-12T00:54:48.131Z,8.08
2017-11-12T00:54:52.485Z,8.07
2017-11-12T00:54:56.570Z,8.08
2017-11-12T00:55:00.802Z,8.08
2017-11-12T00:55:05.164Z,8.08
2017-11-12T00:55:09.656Z,8.08
2017-11-12T00:55:14.029Z,8.08
2017-11-12T00:55:18.485Z,8.07
2017-11-12T00:55:22.846Z,8.08
2017-11-12T00:55:27.351Z,8.08
2017-11-12T00:55:31.741Z,8.08
2017-11-12T00:55:36.101Z,8.08
2017-11-12T00:55:40.597Z,8.08
2017-11-12T00:55:45.089Z,8.08
2017-11-12T00:55:49.610Z,8.07
2017-11-12T00:55:53.829Z,8.08
2017-11-12T00:55:57.932Z,8.07
2017-11-12T00:56:02.568Z,8.08
2017-11-12T00:56:06.661Z,8.07
2017-11-12T00:56:11.038Z,8.07
2017-11-12T00:56:15.393Z,8.08
2017-11-12T00:56:19.752Z,8.07
2017-11-12T00:56:24.243Z,8.07
2017-11-12T00:56:28.599Z,8.08
2017-11-12T00:56:33.085Z,8.07
2017-11-12T00:56:37.437Z,8.07
2017-11-12T00:56:41.844Z,8.08
2017-11-12T00:56:46.329Z,8.07
2017-11-12T00:56:50.678Z,8.07
2017-11-12T00:56:55.179Z,8.07
2017-11-12T00:56:59.262Z,8.07
2017-11-12T00:57:03.541Z,8.08
2017-11-12T00:57:07.630Z,8.07
2017-11-12T00:57:12.004Z,8.07
2017-11-12T00:57:16.497Z,8.06
2017-11-12T00:57:20.997Z,8.06
2017-11-12T00:57:25.512Z,8.07
2017-11-12T00:57:29.733Z,8.07
2017-11-12T00:57:34.239Z,8.07
2017-11-12T00:57:38.640Z,8.06
2017-11-12T00:57:43.131Z,8.05
2017-11-12T00:57:47.621Z,8.07
2017-11-12T00:57:52.125Z,8.04
2017-11-12T00:57:56.480Z,8.05
2017-11-12T00:58:00.840Z,8.05
2017-11-12T00:58:05.702Z,8.04
2017-11-12T00:58:10.052Z,8.02
2017-11-12T00:58:14.538Z,8.02
2017-11-12T00:58:19.064Z,8
2017-11-12T00:58:23.577Z,7.98
2017-11-12T00:58:27.942Z,7.98
2017-11-12T00:58:32.314Z,7.97
2017-11-12T00:58:36.679Z,7.95